Time;durP1;ratioP1;P1;durP2;ratioP2;P2;SDS_P1;SDS_P2;PMS_P1;PMS_P2;Temp;Humidity;BMP_temperature;BMP_pressure;BME280_temperature;BME280_humidity;BME280_pressure;Samples;Min_cycle;Max_cycle;Signal;HPM_P1;HPM_P2
2023/01/06 00:00:11;;;;;;;31.73;10.00;;;;;;;;;;1044853;28;20021;-75
2023/01/06 00:00:42;;;;;;;34.67;12.50;;;;;;;;;;1050054;28;20092;-76
2023/01/06 00:01:15;;;;;;;33.67;10.13;;;;;;;;;;1047511;28;20032;-76
2023/01/06 00:01:46;;;;;;;31.27;11.63;;;;;;;;;;1045745;28;20430;-76
2023/01/06 00:02:16;;;;;;;34.30;11.32;;;;;;;;;;1045866;28;20025;-76
2023/01/06 00:02:47;;;;;;;45.05;16.70;;;;;;;;;;1046152;28;20021;-76
2023/01/06 00:03:18;;;;;;;38.10;16.20;;;;;;;;;;1044828;28;20166;-76
2023/01/06 00:03:50;;;;;;;60.45;19.65;;;;;;;;;;1046054;28;20111;-75
2023/01/06 00:04:20;;;;;;;31.75;11.57;;;;;;;;;;1043917;28;20017;-76
2023/01/06 00:04:51;;;;;;;22.40;8.55;;;;;;;;;;1046632;28;20024;-76
2023/01/06 00:05:22;;;;;;;32.05;9.68;;;;;;;;;;1046186;28;20398;-76
2023/01/06 00:05:56;;;;;;;29.00;9.10;;;;;;;;;;1046125;28;20021;-76
2023/01/06 00:06:27;;;;;;;18.42;7.57;;;;;;;;;;1046372;28;20468;-76
2023/01/06 00:06:58;;;;;;;20.45;10.27;;;;;;;;;;1046125;28;20054;-76
2023/01/06 00:07:28;;;;;;;25.40;8.93;;;;;;;;;;1046167;28;20039;-76
2023/01/06 00:07:59;;;;;;;17.40;8.90;;;;;;;;;;1046374;28;20103;-76
2023/01/06 00:08:29;;;;;;;14.52;6.88;;;;;;;;;;1046164;28;20052;-76
2023/01/06 00:09:01;;;;;;;16.85;7.07;;;;;;;;;;1046288;28;20519;-76
2023/01/06 00:09:33;;;;;;;23.90;8.23;;;;;;;;;;1046351;28;20548;-76
2023/01/06 00:10:04;;;;;;;25.02;10.77;;;;;;;;;;1045798;28;20107;-76
2023/01/06 00:10:35;;;;;;;27.38;10.07;;;;;;;;;;1045626;28;20029;-76
2023/01/06 00:11:09;;;;;;;15.68;9.32;;;;;;;;;;1045596;28;20140;-76
2023/01/06 00:11:40;;;;;;;21.13;8.32;;;;;;;;;;1045562;28;20032;-76
2023/01/06 00:12:11;;;;;;;23.88;11.38;;;;;;;;;;1045882;28;20024;-76
2023/01/06 00:12:44;;;;;;;24.02;9.88;;;;;;;;;;1045198;28;20062;-76
2023/01/06 00:13:15;;;;;;;19.25;9.13;;;;;;;;;;1042348;28;20518;-76
2023/01/06 00:13:45;;;;;;;23.85;8.35;;;;;;;;;;1046577;28;20040;-76
2023/01/06 00:14:16;;;;;;;21.33;7.63;;;;;;;;;;1045718;28;20606;-76
2023/01/06 00:14:47;;;;;;;23.15;10.25;;;;;;;;;;1045666;28;20477;-76
2023/01/06 00:15:17;;;;;;;16.73;6.65;;;;;;;;;;1046290;28;20063;-76
2023/01/06 00:15:48;;;;;;;19.08;7.88;;;;;;;;;;1045261;28;20538;-76
2023/01/06 00:16:19;;;;;;;19.00;7.82;;;;;;;;;;1045658;28;20024;-76
2023/01/06 00:16:50;;;;;;;27.95;8.93;;;;;;;;;;1045930;28;20103;-76
2023/01/06 00:17:20;;;;;;;17.92;7.50;;;;;;;;;;1046251;28;20035;-76
2023/01/06 00:17:51;;;;;;;21.58;9.60;;;;;;;;;;1046322;28;20115;-76
2023/01/06 00:18:21;;;;;;;22.02;8.35;;;;;;;;;;1046053;28;20013;-76
2023/01/06 00:18:55;;;;;;;16.15;7.80;;;;;;;;;;1046322;28;20120;-76
2023/01/06 00:19:26;;;;;;;17.20;6.93;;;;;;;;;;1046275;28;20032;-76
2023/01/06 00:19:57;;;;;;;21.08;8.80;;;;;;;;;;1045909;28;20591;-76
2023/01/06 00:20:27;;;;;;;25.52;10.63;;;;;;;;;;1045126;28;20063;-76
2023/01/06 00:20:59;;;;;;;25.23;10.38;;;;;;;;;;1047987;28;20020;-76
2023/01/06 00:21:29;;;;;;;27.90;11.82;;;;;;;;;;1048072;28;20051;-76
2023/01/06 00:22:00;;;;;;;18.92;9.50;;;;;;;;;;1048235;28;20538;-76
2023/01/06 00:22:30;;;;;;;26.35;10.15;;;;;;;;;;1047866;28;20101;-76
2023/01/06 00:23:01;;;;;;;28.67;10.68;;;;;;;;;;1045328;28;20061;-76
2023/01/06 00:23:32;;;;;;;23.90;8.77;;;;;;;;;;1046562;28;20078;-76
2023/01/06 00:24:03;;;;;;;20.27;9.48;;;;;;;;;;1044980;28;20032;-76
2023/01/06 00:24:33;;;;;;;20.00;9.48;;;;;;;;;;1045324;28;20028;-76
2023/01/06 00:25:04;;;;;;;20.08;8.18;;;;;;;;;;1045968;28;20173;-76
2023/01/06 00:25:34;;;;;;;26.48;10.10;;;;;;;;;;1046950;28;20055;-76
2023/01/06 00:26:06;;;;;;;20.02;9.10;;;;;;;;;;1045985;28;20099;-76
2023/01/06 00:26:37;;;;;;;21.88;9.77;;;;;;;;;;1047111;28;20017;-76
2023/01/06 00:27:07;;;;;;;21.80;8.70;;;;;;;;;;1046199;28;20472;-76
2023/01/06 00:27:38;;;;;;;19.27;9.10;;;;;;;;;;1046089;28;20517;-76
2023/01/06 00:28:09;;;;;;;20.50;9.00;;;;;;;;;;1045949;28;20043;-76
2023/01/06 00:28:39;;;;;;;20.63;10.18;;;;;;;;;;1046365;28;20031;-76
2023/01/06 00:29:10;;;;;;;16.30;7.88;;;;;;;;;;1046024;28;20056;-76
2023/01/06 00:29:41;;;;;;;19.38;7.93;;;;;;;;;;1045902;28;20020;-75
2023/01/06 00:30:11;;;;;;;22.33;10.02;;;;;;;;;;1046031;28;20024;-76
2023/01/06 00:30:42;;;;;;;18.63;7.63;;;;;;;;;;1045485;28;20047;-76
2023/01/06 00:31:14;;;;;;;23.02;11.98;;;;;;;;;;1045663;28;20021;-75
2023/01/06 00:31:44;;;;;;;19.38;7.75;;;;;;;;;;1047023;28;20028;-76
2023/01/06 00:32:16;;;;;;;31.65;9.07;;;;;;;;;;1045653;28;20021;-75
2023/01/06 00:32:46;;;;;;;28.75;8.75;;;;;;;;;;1045774;28;20028;-76
2023/01/06 00:33:17;;;;;;;32.13;8.88;;;;;;;;;;1046839;28;20052;-76
2023/01/06 00:33:47;;;;;;;27.02;7.35;;;;;;;;;;1047347;28;20058;-76
2023/01/06 00:34:18;;;;;;;17.73;7.53;;;;;;;;;;1052115;28;20058;-76
2023/01/06 00:34:49;;;;;;;14.05;6.75;;;;;;;;;;1052062;28;20024;-76
2023/01/06 00:35:19;;;;;;;24.92;8.10;;;;;;;;;;1052164;28;20392;-76
2023/01/06 00:35:50;;;;;;;19.20;6.93;;;;;;;;;;1045718;28;20388;-76
2023/01/06 00:36:21;;;;;;;21.92;7.28;;;;;;;;;;1045641;28;20075;-76
2023/01/06 00:36:51;;;;;;;18.10;7.95;;;;;;;;;;1046062;28;20495;-76
2023/01/06 00:37:22;;;;;;;26.10;11.77;;;;;;;;;;1046193;28;20478;-76
2023/01/06 00:37:52;;;;;;;19.92;9.35;;;;;;;;;;1046499;28;20480;-76
2023/01/06 00:38:23;;;;;;;22.60;8.80;;;;;;;;;;1046141;28;20391;-76
2023/01/06 00:38:53;;;;;;;15.00;7.22;;;;;;;;;;1046041;28;20396;-76
2023/01/06 00:39:24;;;;;;;16.15;8.25;;;;;;;;;;1045952;28;20393;-76
2023/01/06 00:39:54;;;;;;;17.80;7.18;;;;;;;;;;1045699;28;20025;-76
2023/01/06 00:40:25;;;;;;;14.05;6.75;;;;;;;;;;1046012;28;20021;-76
2023/01/06 00:40:56;;;;;;;13.50;4.80;;;;;;;;;;1044298;28;20021;-76
2023/01/06 00:42:16;;;;;;;15.55;7.03;;;;;;;;;;1046169;28;20017;-76
2023/01/06 00:42:46;;;;;;;21.83;8.63;;;;;;;;;;1045492;28;20056;-76
2023/01/06 00:43:17;;;;;;;15.82;7.43;;;;;;;;;;1045751;28;20021;-76
2023/01/06 00:43:47;;;;;;;20.85;9.75;;;;;;;;;;1046932;28;20503;-76
2023/01/06 00:44:18;;;;;;;22.48;9.30;;;;;;;;;;1046369;28;20457;-76
2023/01/06 00:44:48;;;;;;;16.23;8.38;;;;;;;;;;1046027;28;20427;-76
2023/01/06 00:45:19;;;;;;;16.85;8.95;;;;;;;;;;1046000;28;20024;-76
2023/01/06 00:45:49;;;;;;;35.03;9.35;;;;;;;;;;1046035;28;20032;-76
2023/01/06 00:46:21;;;;;;;22.58;8.95;;;;;;;;;;1046052;28;20017;-76
2023/01/06 00:46:52;;;;;;;25.92;11.45;;;;;;;;;;1046114;28;20028;-76
2023/01/06 00:47:22;;;;;;;19.27;10.00;;;;;;;;;;1046041;28;20024;-76
2023/01/06 00:47:53;;;;;;;29.80;12.55;;;;;;;;;;1046282;28;20017;-76
2023/01/06 00:48:23;;;;;;;34.88;14.27;;;;;;;;;;1045666;28;20468;-76
2023/01/06 00:48:54;;;;;;;30.77;12.60;;;;;;;;;;1046059;28;20123;-76
2023/01/06 00:49:25;;;;;;;26.83;12.35;;;;;;;;;;1046087;28;20090;-75
2023/01/06 00:49:55;;;;;;;23.67;10.70;;;;;;;;;;1042704;28;20175;-76
2023/01/06 00:50:26;;;;;;;25.13;11.93;;;;;;;;;;1046355;28;20016;-75
2023/01/06 00:51:00;;;;;;;25.98;9.40;;;;;;;;;;1045749;28;20099;-76
2023/01/06 00:51:30;;;;;;;14.65;7.65;;;;;;;;;;1048775;28;20021;-76
2023/01/06 00:52:02;;;;;;;9.13;5.90;;;;;;;;;;1047407;28;20024;-76
2023/01/06 00:52:33;;;;;;;11.25;5.90;;;;;;;;;;1046140;28;20420;-76
2023/01/06 00:53:03;;;;;;;13.48;5.82;;;;;;;;;;1046012;28;20472;-76
2023/01/06 00:53:34;;;;;;;11.98;6.93;;;;;;;;;;1046204;28;20099;-76
2023/01/06 00:54:05;;;;;;;18.65;7.07;;;;;;;;;;1044907;28;20033;-76
2023/01/06 00:54:36;;;;;;;10.40;5.75;;;;;;;;;;1044852;28;20020;-76
2023/01/06 00:55:07;;;;;;;10.32;4.80;;;;;;;;;;1042999;28;20438;-75
2023/01/06 00:55:37;;;;;;;13.43;6.57;;;;;;;;;;1044254;28;20108;-75
2023/01/06 00:56:08;;;;;;;21.10;10.00;;;;;;;;;;1045600;28;20036;-76
2023/01/06 00:56:43;;;;;;;18.92;7.10;;;;;;;;;;1046616;28;20025;-76
2023/01/06 00:57:14;;;;;;;20.38;10.60;;;;;;;;;;1046639;28;20024;-76
2023/01/06 00:57:44;;;;;;;21.35;8.98;;;;;;;;;;1046030;28;20033;-76
2023/01/06 00:58:15;;;;;;;16.83;9.02;;;;;;;;;;1046251;28;20098;-76
2023/01/06 00:58:46;;;;;;;18.77;9.23;;;;;;;;;;1046359;28;20082;-76
2023/01/06 00:59:20;;;;;;;14.98;7.60;;;;;;;;;;1046379;28;20025;-76
2023/01/06 00:59:51;;;;;;;11.85;6.82;;;;;;;;;;1045529;28;20018;-76
2023/01/06 01:00:22;;;;;;;16.80;6.45;;;;;;;;;;1045574;28;20021;-76
2023/01/06 01:00:52;;;;;;;15.50;7.35;;;;;;;;;;1045709;28;20027;-75
2023/01/06 01:01:23;;;;;;;18.67;7.68;;;;;;;;;;1045106;28;20021;-75
2023/01/06 01:01:54;;;;;;;19.77;8.63;;;;;;;;;;1046101;28;20012;-76
2023/01/06 01:02:25;;;;;;;17.85;8.50;;;;;;;;;;1046086;28;20032;-76
2023/01/06 01:02:55;;;;;;;18.80;8.15;;;;;;;;;;1045758;28;20025;-76
2023/01/06 01:03:26;;;;;;;22.13;10.73;;;;;;;;;;1046314;28;20031;-76
2023/01/06 01:03:57;;;;;;;21.63;9.82;;;;;;;;;;1045473;28;20024;-76
2023/01/06 01:04:28;;;;;;;24.63;11.57;;;;;;;;;;1045146;28;20530;-76
2023/01/06 01:04:58;;;;;;;18.23;9.57;;;;;;;;;;1046066;28;20115;-76
2023/01/06 01:05:29;;;;;;;22.38;10.80;;;;;;;;;;1046120;28;20032;-76
2023/01/06 01:06:00;;;;;;;20.60;9.10;;;;;;;;;;1045975;28;21305;-76
2023/01/06 01:06:31;;;;;;;28.35;10.77;;;;;;;;;;1045816;28;20060;-76
2023/01/06 01:07:01;;;;;;;24.20;10.40;;;;;;;;;;1045836;28;20495;-76
2023/01/06 01:07:32;;;;;;;21.00;9.00;;;;;;;;;;1045246;28;20029;-76
2023/01/06 01:08:03;;;;;;;22.35;10.43;;;;;;;;;;1046013;28;20032;-76
2023/01/06 01:08:33;;;;;;;21.48;10.35;;;;;;;;;;1044979;28;20071;-76
2023/01/06 01:09:05;;;;;;;20.95;10.82;;;;;;;;;;1046306;28;20028;-76
2023/01/06 01:09:36;;;;;;;20.88;10.75;;;;;;;;;;1045544;28;20075;-76
2023/01/06 01:10:07;;;;;;;22.50;12.13;;;;;;;;;;1045626;28;20110;-76
2023/01/06 01:10:37;;;;;;;17.50;9.13;;;;;;;;;;1046125;28;20469;-76
2023/01/06 01:11:09;;;;;;;21.00;8.88;;;;;;;;;;1046765;28;20029;-76
2023/01/06 01:12:29;;;;;;;20.40;10.70;;;;;;;;;;1045775;28;20021;-76
2023/01/06 01:12:59;;;;;;;17.58;8.98;;;;;;;;;;1046708;28;20020;-76
2023/01/06 01:13:30;;;;;;;18.73;8.70;;;;;;;;;;1045473;28;20044;-76
2023/01/06 01:14:00;;;;;;;17.45;7.85;;;;;;;;;;1045494;28;20031;-76
2023/01/06 01:14:31;;;;;;;17.25;8.00;;;;;;;;;;1045377;28;20575;-76
2023/01/06 01:15:01;;;;;;;18.08;8.35;;;;;;;;;;1045816;28;20032;-76
2023/01/06 01:15:32;;;;;;;16.02;8.63;;;;;;;;;;1046175;28;20021;-76
2023/01/06 01:16:06;;;;;;;18.45;9.48;;;;;;;;;;1045075;28;20024;-76
2023/01/06 01:16:37;;;;;;;17.95;7.18;;;;;;;;;;1045618;28;20017;-76
2023/01/06 01:17:08;;;;;;;21.85;8.70;;;;;;;;;;1045866;28;20393;-76
2023/01/06 01:17:39;;;;;;;20.85;9.35;;;;;;;;;;1046131;28;20023;-76
2023/01/06 01:18:10;;;;;;;28.17;9.50;;;;;;;;;;1045891;28;20024;-76
2023/01/06 01:18:40;;;;;;;21.13;8.77;;;;;;;;;;1045404;28;20021;-76
2023/01/06 01:19:11;;;;;;;26.45;9.38;;;;;;;;;;1045797;28;20075;-76
2023/01/06 01:19:42;;;;;;;23.77;9.85;;;;;;;;;;1046590;28;20029;-76
2023/01/06 01:20:12;;;;;;;18.70;9.82;;;;;;;;;;1046057;28;20081;-76
2023/01/06 01:20:44;;;;;;;17.80;7.97;;;;;;;;;;1045882;28;20017;-76
2023/01/06 01:21:15;;;;;;;15.45;8.02;;;;;;;;;;1045858;28;20086;-76
2023/01/06 01:21:45;;;;;;;18.45;7.63;;;;;;;;;;1046355;28;20085;-76
2023/01/06 01:22:16;;;;;;;22.73;8.35;;;;;;;;;;1046709;28;20090;-75
2023/01/06 01:22:47;;;;;;;17.48;6.95;;;;;;;;;;1045608;28;20066;-76
2023/01/06 01:23:17;;;;;;;19.63;7.97;;;;;;;;;;1045492;28;20485;-76
2023/01/06 01:23:48;;;;;;;13.05;7.68;;;;;;;;;;1045757;28;20104;-76
2023/01/06 01:24:19;;;;;;;21.13;8.13;;;;;;;;;;1044353;28;20165;-76
2023/01/06 01:24:49;;;;;;;17.88;7.85;;;;;;;;;;1044650;28;20019;-76
2023/01/06 01:25:20;;;;;;;23.40;10.05;;;;;;;;;;1045926;28;20032;-75
2023/01/06 01:25:54;;;;;;;18.50;8.90;;;;;;;;;;1046097;28;20575;-76
2023/01/06 01:26:24;;;;;;;21.70;10.23;;;;;;;;;;1043057;28;20028;-76
2023/01/06 01:26:55;;;;;;;15.63;7.70;;;;;;;;;;1043508;28;20032;-76
2023/01/06 01:27:26;;;;;;;23.88;9.00;;;;;;;;;;1043331;28;20029;-76
2023/01/06 01:27:56;;;;;;;17.45;8.05;;;;;;;;;;1041473;28;20032;-76
2023/01/06 01:28:27;;;;;;;22.50;8.60;;;;;;;;;;1044662;28;20101;-76
2023/01/06 01:28:57;;;;;;;24.98;10.02;;;;;;;;;;1046815;28;20024;-76
2023/01/06 01:29:28;;;;;;;22.65;10.20;;;;;;;;;;1045959;28;20290;-75
2023/01/06 01:29:58;;;;;;;25.90;10.88;;;;;;;;;;1045981;28;20020;-76
2023/01/06 01:30:29;;;;;;;21.98;8.68;;;;;;;;;;1044931;28;20490;-76
2023/01/06 01:31:00;;;;;;;25.15;9.30;;;;;;;;;;1044783;28;20508;-76
2023/01/06 01:31:31;;;;;;;24.30;10.00;;;;;;;;;;1046158;28;20029;-76
2023/01/06 01:32:01;;;;;;;14.05;5.95;;;;;;;;;;1045617;28;20028;-76
2023/01/06 01:32:32;;;;;;;17.02;6.55;;;;;;;;;;1044763;28;20056;-76
2023/01/06 01:33:03;;;;;;;18.00;8.23;;;;;;;;;;1045851;28;20024;-76
2023/01/06 01:33:33;;;;;;;33.17;13.65;;;;;;;;;;1044185;28;20484;-76
2023/01/06 01:34:04;;;;;;;34.80;13.82;;;;;;;;;;1044066;28;20016;-76
2023/01/06 01:34:35;;;;;;;18.58;9.38;;;;;;;;;;1045633;28;20024;-76
2023/01/06 01:35:05;;;;;;;23.75;6.13;;;;;;;;;;1045906;28;20017;-76
2023/01/06 01:35:36;;;;;;;16.58;7.65;;;;;;;;;;1045053;28;20107;-76
2023/01/06 01:36:11;;;;;;;15.23;8.25;;;;;;;;;;1041888;28;20162;-76
2023/01/06 01:36:42;;;;;;;35.20;13.20;;;;;;;;;;1045930;28;20048;-76
2023/01/06 01:37:13;;;;;;;35.72;14.68;;;;;;;;;;1045886;28;20025;-76
2023/01/06 01:37:44;;;;;;;30.98;12.02;;;;;;;;;;1046092;28;20059;-76
2023/01/06 01:38:14;;;;;;;24.30;11.10;;;;;;;;;;1045509;28;20093;-76
2023/01/06 01:38:45;;;;;;;17.48;7.88;;;;;;;;;;1045786;28;20107;-76
2023/01/06 01:39:17;;;;;;;9.65;5.00;;;;;;;;;;1042942;28;20115;-76
2023/01/06 01:39:48;;;;;;;24.48;9.15;;;;;;;;;;1041733;28;20124;-76
2023/01/06 01:40:18;;;;;;;40.72;15.90;;;;;;;;;;1046032;28;20098;-76
2023/01/06 01:40:49;;;;;;;46.92;15.45;;;;;;;;;;1046456;28;20517;-76
2023/01/06 01:41:21;;;;;;;36.60;14.93;;;;;;;;;;1044735;28;20017;-76
2023/01/06 01:41:52;;;;;;;33.22;15.23;;;;;;;;;;1045998;28;20028;-76
2023/01/06 01:42:22;;;;;;;35.55;14.40;;;;;;;;;;1045278;28;20099;-75
2023/01/06 01:42:53;;;;;;;27.45;8.98;;;;;;;;;;1045681;28;20032;-76
2023/01/06 01:43:24;;;;;;;19.83;8.25;;;;;;;;;;1044817;28;20021;-76
2023/01/06 01:43:59;;;;;;;43.03;18.27;;;;;;;;;;1046413;28;20040;-75
2023/01/06 01:44:53;;;;;;;56.10;21.10;;;;;;;;;;1044809;28;20025;-76
2023/01/06 01:45:27;;;;;;;57.65;21.95;;;;;;;;;;1046269;28;20086;-76
2023/01/06 01:45:58;;;;;;;65.88;23.05;;;;;;;;;;1046332;28;20016;-76
2023/01/06 01:46:39;;;;;;;53.85;22.15;;;;;;;;;;1046086;28;20109;-76
2023/01/06 01:47:12;;;;;;;55.60;22.05;;;;;;;;;;1045590;28;20017;-76
2023/01/06 01:47:55;;;;;;;57.22;24.02;;;;;;;;;;1045172;28;20032;-76
2023/01/06 01:48:28;;;;;;;53.50;23.75;;;;;;;;;;1045779;28;20119;-76
2023/01/06 01:49:05;;;;;;;50.15;18.35;;;;;;;;;;1044991;28;20021;-76
2023/01/06 01:49:37;;;;;;;54.42;20.90;;;;;;;;;;1046250;28;20498;-76
2023/01/06 01:50:14;;;;;;;52.05;21.25;;;;;;;;;;1046215;28;20115;-76
2023/01/06 01:50:46;;;;;;;51.95;17.67;;;;;;;;;;1046744;28;20451;-76
2023/01/06 01:51:18;;;;;;;45.60;17.75;;;;;;;;;;1045383;28;20032;-76
2023/01/06 01:51:51;;;;;;;44.97;20.65;;;;;;;;;;1045522;28;20408;-76
2023/01/06 01:52:22;;;;;;;51.60;20.60;;;;;;;;;;1045405;28;20095;-76
2023/01/06 01:52:54;;;;;;;28.25;9.80;;;;;;;;;;1045668;28;20025;-76
2023/01/06 01:53:26;;;;;;;34.42;13.98;;;;;;;;;;1045192;28;20059;-76
2023/01/06 01:53:58;;;;;;;25.73;12.45;;;;;;;;;;1046400;28;20471;-76
2023/01/06 01:54:31;;;;;;;50.80;21.23;;;;;;;;;;1045054;28;20596;-76
2023/01/06 01:55:02;;;;;;;68.60;27.95;;;;;;;;;;1045015;28;20017;-76
2023/01/06 01:55:34;;;;;;;75.25;29.10;;;;;;;;;;1045559;28;20103;-76
2023/01/06 01:56:07;;;;;;;92.82;34.88;;;;;;;;;;1045404;28;20024;-76
2023/01/06 01:56:41;;;;;;;80.55;31.13;;;;;;;;;;1045851;28;20074;-76
2023/01/06 01:57:18;;;;;;;94.50;37.55;;;;;;;;;;1046167;28;20029;-76
2023/01/06 01:58:23;;;;;;;82.78;32.47;;;;;;;;;;1045856;28;20031;-76
2023/01/06 01:59:06;;;;;;;44.67;18.95;;;;;;;;;;1033375;28;20113;-76
2023/01/06 01:59:37;;;;;;;52.03;21.50;;;;;;;;;;1030944;28;20037;-75
2023/01/06 02:00:08;;;;;;;63.40;26.70;;;;;;;;;;1031201;28;20029;-76
2023/01/06 02:00:41;;;;;;;72.32;28.45;;;;;;;;;;1031037;28;20037;-76
2023/01/06 02:01:12;;;;;;;68.28;27.45;;;;;;;;;;1029674;28;20033;-76
2023/01/06 02:01:43;;;;;;;56.35;24.48;;;;;;;;;;1042185;28;20071;-76
2023/01/06 02:02:15;;;;;;;77.53;30.35;;;;;;;;;;1045178;28;20051;-76
2023/01/06 02:02:46;;;;;;;63.60;26.17;;;;;;;;;;1044207;28;20024;-76
2023/01/06 02:03:17;;;;;;;69.70;26.05;;;;;;;;;;1045679;28;20487;-76
2023/01/06 02:03:48;;;;;;;68.10;29.38;;;;;;;;;;1045490;28;20021;-76
2023/01/06 02:04:19;;;;;;;50.40;18.40;;;;;;;;;;1045399;28;20021;-76
2023/01/06 02:04:52;;;;;;;55.67;23.63;;;;;;;;;;1045706;28;20028;-76
2023/01/06 02:05:24;;;;;;;50.95;19.65;;;;;;;;;;1045925;28;20473;-76
2023/01/06 02:05:56;;;;;;;37.45;19.60;;;;;;;;;;1046119;28;20021;-76
2023/01/06 02:06:28;;;;;;;40.67;19.63;;;;;;;;;;1046446;28;20029;-76
2023/01/06 02:06:58;;;;;;;41.72;18.73;;;;;;;;;;1045403;28;21179;-76
2023/01/06 02:07:29;;;;;;;44.17;20.08;;;;;;;;;;1045768;28;20407;-76
2023/01/06 02:08:01;;;;;;;49.25;21.50;;;;;;;;;;1045697;28;20032;-76
2023/01/06 02:08:48;;;;;;;64.47;28.42;;;;;;;;;;1045957;28;20021;-76
2023/01/06 02:09:37;;;;;;;50.30;23.45;;;;;;;;;;1045114;28;20024;-76
2023/01/06 02:10:10;;;;;;;55.47;22.17;;;;;;;;;;1046049;28;20024;-76
2023/01/06 02:10:41;;;;;;;61.28;23.83;;;;;;;;;;1045638;28;20021;-76
2023/01/06 02:11:11;;;;;;;61.72;23.83;;;;;;;;;;1045338;28;20418;-76
2023/01/06 02:11:42;;;;;;;53.53;20.50;;;;;;;;;;1045653;28;20422;-76
2023/01/06 02:12:13;;;;;;;63.28;25.90;;;;;;;;;;1045699;28;20028;-76
2023/01/06 02:12:46;;;;;;;64.43;21.80;;;;;;;;;;1043831;28;20115;-76
2023/01/06 02:13:16;;;;;;;54.47;22.75;;;;;;;;;;1045681;28;20586;-76
2023/01/06 02:13:49;;;;;;;61.13;26.67;;;;;;;;;;1044032;28;20024;-76
2023/01/06 02:14:22;;;;;;;50.63;19.70;;;;;;;;;;1044634;28;20515;-76
2023/01/06 02:14:53;;;;;;;47.33;20.33;;;;;;;;;;1044624;28;20405;-76
2023/01/06 02:15:30;;;;;;;41.63;16.80;;;;;;;;;;1045386;28;20111;-76
2023/01/06 02:16:27;;;;;;;43.55;18.48;;;;;;;;;;1043867;28;20047;-76
2023/01/06 02:16:57;;;;;;;52.33;20.25;;;;;;;;;;1029007;28;20031;-76
2023/01/06 02:17:37;;;;;;;46.25;19.73;;;;;;;;;;1032138;28;20118;-76
2023/01/06 02:18:28;;;;;;;55.00;19.95;;;;;;;;;;1046169;28;20028;-76
2023/01/06 02:19:08;;;;;;;64.88;26.83;;;;;;;;;;1046114;28;20107;-76
2023/01/06 02:19:44;;;;;;;54.25;20.35;;;;;;;;;;1045877;28;20020;-75
2023/01/06 02:20:21;;;;;;;63.25;22.38;;;;;;;;;;1045143;28;20039;-76
2023/01/06 02:21:06;;;;;;;67.60;26.38;;;;;;;;;;1044955;28;20020;-76
2023/01/06 02:21:39;;;;;;;83.35;27.95;;;;;;;;;;1046229;28;20533;-76
2023/01/06 02:22:25;;;;;;;88.20;33.25;;;;;;;;;;1046176;28;20016;-76
2023/01/06 02:23:16;;;;;;;86.50;28.67;;;;;;;;;;1045884;28;20035;-76
2023/01/06 02:23:52;;;;;;;52.45;20.42;;;;;;;;;;1046476;28;20046;-76
2023/01/06 02:24:26;;;;;;;51.40;20.42;;;;;;;;;;1046044;28;20028;-76
2023/01/06 02:25:06;;;;;;;49.38;22.15;;;;;;;;;;1045855;28;20044;-76
2023/01/06 02:25:48;;;;;;;50.03;17.83;;;;;;;;;;1046212;28;20032;-76
2023/01/06 02:26:32;;;;;;;45.03;18.17;;;;;;;;;;1045642;28;20077;-75
2023/01/06 02:27:21;;;;;;;38.83;15.95;;;;;;;;;;1045642;28;20114;-76
2023/01/06 02:28:00;;;;;;;32.30;14.38;;;;;;;;;;1044154;28;20063;-76
2023/01/06 02:28:46;;;;;;;38.63;16.15;;;;;;;;;;1044734;28;20070;-76
2023/01/06 02:29:31;;;;;;;43.78;17.55;;;;;;;;;;1045416;28;20032;-76
2023/01/06 02:30:05;;;;;;;37.42;15.98;;;;;;;;;;1049775;28;20514;-76
2023/01/06 02:30:52;;;;;;;45.30;17.77;;;;;;;;;;1048058;28;20505;-76
2023/01/06 02:31:28;;;;;;;32.28;13.23;;;;;;;;;;1051481;28;20031;-76
2023/01/06 02:32:17;;;;;;;36.40;15.52;;;;;;;;;;1046660;28;20016;-76
2023/01/06 02:32:52;;;;;;;37.80;15.88;;;;;;;;;;1047598;28;20029;-76
2023/01/06 02:33:32;;;;;;;36.88;13.32;;;;;;;;;;1044844;28;20571;-76
2023/01/06 02:34:08;;;;;;;29.48;12.27;;;;;;;;;;1045756;28;20025;-76
2023/01/06 02:34:42;;;;;;;33.08;14.50;;;;;;;;;;1045051;28;20115;-76
2023/01/06 02:35:33;;;;;;;29.80;15.02;;;;;;;;;;1044948;28;20087;-76
2023/01/06 02:36:10;;;;;;;44.95;16.73;;;;;;;;;;1039556;28;20533;-76
2023/01/06 02:36:40;;;;;;;29.05;12.38;;;;;;;;;;1046149;28;20154;-76
2023/01/06 02:37:20;;;;;;;30.10;11.82;;;;;;;;;;1046137;28;20101;-76
2023/01/06 02:37:56;;;;;;;24.83;11.65;;;;;;;;;;1045118;28;20078;-76
2023/01/06 02:38:45;;;;;;;27.77;11.30;;;;;;;;;;1045910;28;20020;-76
2023/01/06 02:39:29;;;;;;;27.40;13.20;;;;;;;;;;1046746;28;20024;-76
2023/01/06 02:40:06;;;;;;;34.40;13.85;;;;;;;;;;1048774;28;20020;-76
2023/01/06 02:40:54;;;;;;;31.83;12.35;;;;;;;;;;1049679;28;20189;-76
2023/01/06 02:41:32;;;;;;;28.42;11.40;;;;;;;;;;1049186;28;20066;-76
2023/01/06 02:42:14;;;;;;;28.63;12.43;;;;;;;;;;1051961;28;20046;-76
2023/01/06 02:42:51;;;;;;;33.45;11.40;;;;;;;;;;1052063;28;20055;-76
2023/01/06 02:43:25;;;;;;;29.83;12.80;;;;;;;;;;1047079;28;20024;-75
2023/01/06 02:43:58;;;;;;;24.58;11.45;;;;;;;;;;1046221;28;20099;-75
2023/01/06 02:44:29;;;;;;;39.40;15.18;;;;;;;;;;1045897;28;20032;-76
2023/01/06 02:44:59;;;;;;;32.67;13.88;;;;;;;;;;1045776;28;20143;-76
2023/01/06 02:45:44;;;;;;;33.30;16.27;;;;;;;;;;1046568;28;20104;-76
2023/01/06 02:46:20;;;;;;;41.03;15.82;;;;;;;;;;1049976;28;20097;-76
2023/01/06 02:47:08;;;;;;;29.70;13.68;;;;;;;;;;1052678;28;20023;-76
2023/01/06 02:47:39;;;;;;;39.80;16.77;;;;;;;;;;1052534;28;20083;-76
2023/01/06 02:48:16;;;;;;;29.35;13.80;;;;;;;;;;1047414;28;20021;-76
2023/01/06 02:48:54;;;;;;;32.25;13.43;;;;;;;;;;1046084;28;20194;-76
2023/01/06 02:49:31;;;;;;;35.25;14.55;;;;;;;;;;1046665;28;20026;-76
2023/01/06 02:50:28;;;;;;;29.67;14.50;;;;;;;;;;1046572;28;20029;-75
2023/01/06 02:51:07;;;;;;;38.25;14.18;;;;;;;;;;1042797;28;20044;-76
2023/01/06 02:51:40;;;;;;;31.48;13.93;;;;;;;;;;1045612;28;20017;-76
2023/01/06 02:52:17;;;;;;;30.50;12.35;;;;;;;;;;1041959;28;20367;-76
2023/01/06 02:52:59;;;;;;;30.50;12.40;;;;;;;;;;1044694;28;21259;-76
2023/01/06 02:53:33;;;;;;;26.05;11.70;;;;;;;;;;1046439;28;20049;-76
2023/01/06 02:54:07;;;;;;;40.55;15.45;;;;;;;;;;1047241;28;20021;-76
2023/01/06 02:54:58;;;;;;;26.00;13.20;;;;;;;;;;1046330;28;20075;-76
2023/01/06 02:55:31;;;;;;;29.02;13.23;;;;;;;;;;1045618;28;20032;-76
2023/01/06 02:56:02;;;;;;;50.97;20.92;;;;;;;;;;1046357;28;20024;-76
2023/01/06 02:56:38;;;;;;;58.67;24.52;;;;;;;;;;1046675;28;20028;-76
2023/01/06 02:57:27;;;;;;;57.92;23.77;;;;;;;;;;1046418;28;20028;-76
2023/01/06 02:58:03;;;;;;;59.75;25.88;;;;;;;;;;1046685;28;20467;-76
2023/01/06 02:58:40;;;;;;;81.82;30.23;;;;;;;;;;1046435;28;20039;-76
2023/01/06 02:59:17;;;;;;;67.32;29.73;;;;;;;;;;1046455;28;20690;-76
2023/01/06 02:59:52;;;;;;;67.20;26.90;;;;;;;;;;1046889;28;20029;-76
2023/01/06 03:00:23;;;;;;;91.30;34.38;;;;;;;;;;1045716;28;20021;-76
2023/01/06 03:00:58;;;;;;;90.40;39.45;;;;;;;;;;1047192;28;20028;-76
2023/01/06 03:01:40;;;;;;;116.50;46.75;;;;;;;;;;1046998;28;20391;-76
2023/01/06 03:02:11;;;;;;;200.57;80.90;;;;;;;;;;1046037;28;20074;-76
2023/01/06 03:02:43;;;;;;;198.50;84.30;;;;;;;;;;1046284;28;20062;-76
2023/01/06 03:03:16;;;;;;;183.98;84.20;;;;;;;;;;1045729;28;20021;-76
2023/01/06 03:03:47;;;;;;;191.68;78.97;;;;;;;;;;1046499;28;20025;-76
2023/01/06 03:04:21;;;;;;;190.18;85.32;;;;;;;;;;1046489;28;20043;-76
2023/01/06 03:04:53;;;;;;;192.25;76.95;;;;;;;;;;1046719;28;20242;-76
2023/01/06 03:05:24;;;;;;;192.70;80.28;;;;;;;;;;1047124;28;20032;-76
2023/01/06 03:06:00;;;;;;;213.70;83.82;;;;;;;;;;1045724;28;20074;-76
2023/01/06 03:06:32;;;;;;;194.30;81.80;;;;;;;;;;1045568;28;20060;-76
2023/01/06 03:07:04;;;;;;;189.35;75.80;;;;;;;;;;1046067;28;20515;-76
2023/01/06 03:07:35;;;;;;;180.60;76.47;;;;;;;;;;1046351;28;20051;-76
2023/01/06 03:08:09;;;;;;;168.52;69.20;;;;;;;;;;1046183;28;20048;-76
2023/01/06 03:08:40;;;;;;;169.85;69.60;;;;;;;;;;1045442;28;20029;-76
2023/01/06 03:09:15;;;;;;;184.45;71.88;;;;;;;;;;1045617;28;20025;-77
2023/01/06 03:09:46;;;;;;;172.70;66.38;;;;;;;;;;1045217;28;20111;-77
2023/01/06 03:10:18;;;;;;;188.15;70.72;;;;;;;;;;1044651;28;20021;-77
2023/01/06 03:10:49;;;;;;;207.85;73.00;;;;;;;;;;1043911;28;20025;-77
2023/01/06 03:11:20;;;;;;;180.57;68.15;;;;;;;;;;1040509;28;20013;-77
2023/01/06 03:11:51;;;;;;;180.43;69.65;;;;;;;;;;1041961;28;20079;-77
2023/01/06 03:12:34;;;;;;;186.02;71.50;;;;;;;;;;1042350;28;20394;-77
2023/01/06 03:13:16;;;;;;;199.63;70.68;;;;;;;;;;1046147;28;20025;-77
2023/01/06 03:13:46;;;;;;;220.93;80.57;;;;;;;;;;1045478;28;20025;-77
2023/01/06 03:14:29;;;;;;;212.00;80.07;;;;;;;;;;1047055;28;20025;-77
2023/01/06 03:14:59;;;;;;;224.88;76.25;;;;;;;;;;1046734;28;20041;-77
2023/01/06 03:15:30;;;;;;;214.77;81.57;;;;;;;;;;1046794;28;20020;-77
2023/01/06 03:16:00;;;;;;;208.75;79.78;;;;;;;;;;1045758;28;20012;-77
2023/01/06 03:16:31;;;;;;;231.75;89.93;;;;;;;;;;1045775;28;20020;-77